M I D A S
Marine Information and Data Acquisition System
Tripno 230 of the Zeeleeuw from 2002-03-26 07:41:28 to 2002-03-26 14:18:32
Back to CruiseResearch ActivitiesStationsMapUnderway DataData graphs

EquipmentUnitsComment
TimeDGPSUTC
LatitudeDGPSDM.mWGS84
LongitudeDGPSDM.mWGS84
HeadingGyrodeg 
SOGDGPSknotsSpeed over ground
COGDGPSdegCourse over ground
DepthEcho soundermeters200 kHz
Missing or incorrect values are displayed as -999
Navigation data collected by the RV Zeeleeuw from 2002-03-26 07:41:28 to 2002-03-26 14:18:32
                                                                                    Next 1000 lines
Time Latitude Longitude Heading SOG COG Depth
2002-03-26 07:41:35 51°13.689 2°55.906 126.7 0.1 199.1 8.7
2002-03-26 07:41:40 51°13.689 2°55.906 126 0.1 208 8.7
2002-03-26 07:41:45 51°13.689 2°55.906 125.2   189.9 8.7
2002-03-26 07:41:50 51°13.688 2°55.906 124.5   163.7 8.7
2002-03-26 07:41:55 51°13.688 2°55.906 123.7   160.5 8.8
2002-03-26 07:42:00 51°13.688 2°55.906 122.8   137.2 8.8
2002-03-26 07:42:05 51°13.688 2°55.906 122   176.8 8.8
2002-03-26 07:42:09 51°13.688 2°55.906 121.2   195.3 8.8
2002-03-26 07:42:15 51°13.688 2°55.906 120.3   214 8.8
2002-03-26 07:42:20 51°13.688 2°55.905 119.5   220.9 8.8
2002-03-26 07:42:25 51°13.688 2°55.905 118.8   185.9 8.8
2002-03-26 07:42:30 51°13.688 2°55.905 118   192.7 8.8
2002-03-26 07:42:35 51°13.688 2°55.905 117.2   193.9 8.8
2002-03-26 07:42:40 51°13.688 2°55.905 116.5   181.7 8.8
2002-03-26 07:42:45 51°13.688 2°55.905 115.7   183.2 8.9
2002-03-26 07:42:49 51°13.687 2°55.905 114.7 0.1 194.6 8.9
2002-03-26 07:42:55 51°13.687 2°55.905 113.8 0.1 200.5 8.9
2002-03-26 07:42:59 51°13.687 2°55.905 112.8 0.1 197.4 8.9
2002-03-26 07:43:04 51°13.687 2°55.905 112 0.1 205.4 8.9
2002-03-26 07:43:10 51°13.687 2°55.905 111.3 0.1 198.2 8.8
2002-03-26 07:43:15 51°13.687 2°55.905 110.7   162.8 8.8
2002-03-26 07:43:20 51°13.686 2°55.905 110   42.4 8.8
2002-03-26 07:43:25 51°13.686 2°55.905 109.3   23.2 8.8
2002-03-26 07:43:30 51°13.686 2°55.905 108.7   178.3 8.8
2002-03-26 07:43:35 51°13.686 2°55.905 108   189.4 8.8
2002-03-26 07:43:40 51°13.686 2°55.904 107.3   267 8.8
2002-03-26 07:43:44 51°13.685 2°55.904 107.2   293.2 8.9
2002-03-26 07:43:50 51°13.685 2°55.904 107.2 0.1 296.4 8.9
2002-03-26 07:43:55 51°13.685 2°55.902 107 0.3 292.2 8.9
2002-03-26 07:44:00 51°13.686 2°55.9 106.8 0.6 287.9 8.9
2002-03-26 07:44:04 51°13.686 2°55.898 106.8 1 288 9
2002-03-26 07:44:09 51°13.687 2°55.895 106.5 1.3 288 9.1
2002-03-26 07:44:16 51°13.688 2°55.889 105.8 1.7 287.4 -999
2002-03-26 07:44:21 51°13.689 2°55.884 104.8 2.1 286 -999
2002-03-26 07:44:26 51°13.69 2°55.878 103.7 2.4 285 -999
2002-03-26 07:44:31 51°13.691 2°55.872 102.5 2.7 284.1 -999
2002-03-26 07:44:36 51°13.692 2°55.865 101 3 282.3 -999
2002-03-26 07:44:40 51°13.693 2°55.859 99.7 3.2 281.6 -999
2002-03-26 07:44:46 51°13.694 2°55.851 98.7 3.3 281 -999
2002-03-26 07:44:51 51°13.695 2°55.844 97.7 3.2 279.7 -999
2002-03-26 07:44:56 51°13.695 2°55.838 96.8 3.1 279.1 -999
2002-03-26 07:45:01 51°13.696 2°55.831 96 3 278.4 -999
2002-03-26 07:45:05 51°13.696 2°55.825 94.8 3 278 -999
2002-03-26 07:45:10 51°13.697 2°55.818 93.8 3.1 277 10.1
2002-03-26 07:45:15 51°13.698 2°55.812 92.8 3.2 276.4 -999
2002-03-26 07:45:21 51°13.698 2°55.803 91.5 3.3 275.3 -999
2002-03-26 07:45:26 51°13.699 2°55.796 90 3.3 274.4 -999
2002-03-26 07:45:31 51°13.699 2°55.788 88.3 3.4 273.4 -999
2002-03-26 07:45:36 51°13.699 2°55.781 86.5 3.4 271.8 -999
2002-03-26 07:45:40 51°13.699 2°55.775 84.5 3.3 270.5 -999
2002-03-26 07:45:46 51°13.698 2°55.767 82.3 3.3 269 -999
2002-03-26 07:45:51 51°13.698 2°55.76 80.3 3.1 266.6 -999
2002-03-26 07:45:56 51°13.697 2°55.754 78.7 3 264.8 -999
2002-03-26 07:46:00 51°13.697 2°55.749 77 2.8 263.5 13.7
2002-03-26 07:46:05 51°13.696 2°55.743 75.8 2.8 262.5 13.7
2002-03-26 07:46:10 51°13.696 2°55.738 74.7 2.7 261.4 12.8
2002-03-26 07:46:14 51°13.695 2°55.733 73.7 2.5 260.5 13.4
2002-03-26 07:46:19 51°13.694 2°55.728 72.3 2.5 259.8 13
2002-03-26 07:46:25 51°13.694 2°55.722 71.2 2.3 259.3 13.7
2002-03-26 07:46:30 51°13.693 2°55.718 70.2 2.3 258.5 13.9
2002-03-26 07:46:34 51°13.692 2°55.714 68.8 2.1 258.6 13.3
2002-03-26 07:46:39 51°13.692 2°55.712 66.7 1.6 262 13.5
2002-03-26 07:46:45 51°13.693 2°55.711 61.5 0.8 279.7 13.7
2002-03-26 07:46:50 51°13.695 2°55.712 55.2 0.6 339.6 13.7
2002-03-26 07:46:55 51°13.697 2°55.714 46.7 1.3 26.3 13.5
2002-03-26 07:47:00 51°13.7 2°55.716 36.7 1.9 27.4 13.8
2002-03-26 07:47:05 51°13.704 2°55.719 27.2 2.7 22.4 12.5
2002-03-26 07:47:10 51°13.71 2°55.72 17.3 3.4 13.3 12.3
2002-03-26 07:47:15 51°13.715 2°55.72 8.2 3.6 10 11.7
2002-03-26 07:47:20 51°13.721 2°55.719 359.7 4 357.2 11.6
2002-03-26 07:47:25 51°13.727 2°55.717 353.7 4.2 352.1 10.8
2002-03-26 07:47:30 51°13.733 2°55.715 351.2 4.4 348.1 10.9
2002-03-26 07:47:35 51°13.739 2°55.712 349.2 4.6 346.1 11
2002-03-26 07:47:40 51°13.746 2°55.709 347.2 4.8 343.9 11
2002-03-26 07:47:45 51°13.752 2°55.704 344.7 5 341.7 11
2002-03-26 07:47:50 51°13.76 2°55.7 343.2 5.2 340 11.1
2002-03-26 07:47:55 51°13.767 2°55.695 342 5.4 337.5 11
2002-03-26 07:47:59 51°13.772 2°55.691 341.8 5.6 337.2 11
2002-03-26 07:48:05 51°13.781 2°55.685 340.8 5.8 336.2 10.9
2002-03-26 07:48:10 51°13.789 2°55.679 340 6 335.5 11.1
2002-03-26 07:48:15 51°13.797 2°55.673 338.8 6.1 334.6 11.1
2002-03-26 07:48:20 51°13.805 2°55.667 338.2 6.3 333.9 11
2002-03-26 07:48:25 51°13.812 2°55.66 337.3 6.4 333 11
2002-03-26 07:48:30 51°13.821 2°55.653 337.3 6.5 333 11
2002-03-26 07:48:35 51°13.829 2°55.646 337 6.6 332.7 10.9
2002-03-26 07:48:40 51°13.837 2°55.639 337 6.7 332.9 11
2002-03-26 07:48:45 51°13.846 2°55.632 337.5 7 333.1 10.9
2002-03-26 07:48:49 51°13.854 2°55.627 338.3 7.1 333.9 10.9
2002-03-26 07:48:55 51°13.865 2°55.618 338.2 7.4 334.2 10.6
2002-03-26 07:49:00 51°13.874 2°55.61 337.8 7.6 333.8 10.5
2002-03-26 07:49:05 51°13.884 2°55.602 337.7 7.8 333.4 10.5
2002-03-26 07:49:10 51°13.894 2°55.594 338.5 7.9 333.5 10.6
2002-03-26 07:49:15 51°13.904 2°55.587 339.5 8.2 334.2 10.8
2002-03-26 07:49:19 51°13.913 2°55.58 339.2 8.5 334.7 10.8
2002-03-26 07:49:25 51°13.926 2°55.57 339.2 8.8 334.8 10.7
2002-03-26 07:49:30 51°13.938 2°55.561 339.3 8.9 334.6 10.6
2002-03-26 07:49:35 51°13.95 2°55.552 339.3 9.2 334.8 10.6
2002-03-26 07:49:40 51°13.962 2°55.543 338.8 9.4 334.6 10.6
2002-03-26 07:49:45 51°13.974 2°55.534 339.7 9.5 334.6 10.6
2002-03-26 07:49:50 51°13.986 2°55.526 340.5 9.5 335.3 10.6
2002-03-26 07:49:55 51°13.997 2°55.517 340 9.4 335.7 10.6
2002-03-26 07:50:00 51°14.008 2°55.51 340.3 9.1 335.6 10.5
2002-03-26 07:50:05 51°14.019 2°55.502 340.7 8.7 336 10.5
2002-03-26 07:50:10 51°14.029 2°55.495 340.8 8.4 336.4 10.6
2002-03-26 07:50:15 51°14.04 2°55.488 341.2 8.2 336.7 10.7
2002-03-26 07:50:20 51°14.049 2°55.481 340.7 8 336.5 10.6
2002-03-26 07:50:25 51°14.059 2°55.474 340.2 7.8 336 10.7
2002-03-26 07:50:30 51°14.069 2°55.467 339.7 7.6 335.4 10.6
2002-03-26 07:50:35 51°14.078 2°55.46 339 7.5 335.2 10.7
2002-03-26 07:50:40 51°14.087 2°55.453 338.8 7.4 335.1 10.7
2002-03-26 07:50:45 51°14.097 2°55.446 339 7.4 335 10.8
2002-03-26 07:50:50 51°14.106 2°55.439 339.2 7.5 335 10.8
2002-03-26 07:50:55 51°14.116 2°55.431 338.5 7.6 334.6 10.8
2002-03-26 07:51:00 51°14.125 2°55.424 338 7.8 334 10.7
2002-03-26 07:51:05 51°14.135 2°55.415 337 7.8 333.9 10.8
2002-03-26 07:51:10 51°14.145 2°55.407 336 8.1 332 10.8
2002-03-26 07:51:15 51°14.156 2°55.397 335.2 8.3 331 10.8
2002-03-26 07:51:20 51°14.166 2°55.387 334.2 8.6 330.4 10.8
2002-03-26 07:51:25 51°14.177 2°55.376 332.2 9 328.5 10.7
2002-03-26 07:51:30 51°14.188 2°55.364 330.3 9.2 327.2 10.9
2002-03-26 07:51:35 51°14.199 2°55.352 328.7 9.5 325 10.9
2002-03-26 07:51:40 51°14.21 2°55.339 327.5 9.6 324.2 10.9
2002-03-26 07:51:45 51°14.22 2°55.325 325.7 9.8 322.4 11
2002-03-26 07:51:50 51°14.231 2°55.311 324.3 10 320.7 11
2002-03-26 07:51:55 51°14.241 2°55.296 323 10.1 319.7 11.1
2002-03-26 07:52:00 51°14.252 2°55.281 322 10.2 318.4 11
2002-03-26 07:52:05 51°14.262 2°55.265 321 10.2 317.4 10.8
2002-03-26 07:52:10 51°14.272 2°55.249 319.5 10.2 316.4 10.6
2002-03-26 07:52:15 51°14.282 2°55.232 317.2 10.3 314.3 10.7
2002-03-26 07:52:20 51°14.291 2°55.215 314.8 10.3 311.5 11
2002-03-26 07:52:25 51°14.3 2°55.197 312.5 10.3 310.4 10.8
2002-03-26 07:52:29 51°14.307 2°55.182 311 10.4 307.9 10.8
2002-03-26 07:52:35 51°14.317 2°55.159 309.5 10.4 306 10.7
2002-03-26 07:52:40 51°14.325 2°55.14 308.8 10.4 305.2 10.7
2002-03-26 07:52:45 51°14.333 2°55.121 308.5 10.5 304.5 10.7
2002-03-26 07:52:49 51°14.34 2°55.106 308.8 10.5 304.6 10.6
2002-03-26 07:52:55 51°14.35 2°55.083 310.3 10.5 305.6 10.8
2002-03-26 07:53:00 51°14.36 2°55.065 313.3 10.6 307.2 11
2002-03-26 07:53:05 51°14.37 2°55.049 317.8 10.6 311.5 10.9
2002-03-26 07:53:10 51°14.382 2°55.033 322.3 10.7 316.4 10.9
2002-03-26 07:53:15 51°14.393 2°55.018 325.7 10.8 319.5 10.8
2002-03-26 07:53:20 51°14.406 2°55.004 327.7 10.8 321.4 10.9
2002-03-26 07:53:25 51°14.418 2°54.99 328.8 10.9 323.6 10.8
2002-03-26 07:53:30 51°14.43 2°54.975 329 11 324.3 10.8
2002-03-26 07:53:35 51°14.443 2°54.962 329.8 11 324.8 10.6
2002-03-26 07:53:40 51°14.456 2°54.948 330.3 11.1 325 10.6
2002-03-26 07:53:45 51°14.469 2°54.934 330.5 11.1 325.6 10.5
2002-03-26 07:53:49 51°14.479 2°54.923 330.5 11.1 325.7 10.6
2002-03-26 07:53:55 51°14.494 2°54.906 330.3 11.2 325.7 10.6
2002-03-26 07:54:00 51°14.507 2°54.892 330 11.2 325.4 10.5
2002-03-26 07:54:05 51°14.52 2°54.877 330.2 11.2 325.1 10.5
2002-03-26 07:54:10 51°14.533 2°54.863 330.2 11.3 325.2 10.5
2002-03-26 07:54:15 51°14.545 2°54.849 330.2 11.4 325 10.4
2002-03-26 07:54:20 51°14.559 2°54.834 330.5 11.5 325.3 10.4
2002-03-26 07:54:25 51°14.572 2°54.819 330.3 11.5 325.2 10.3
2002-03-26 07:54:30 51°14.585 2°54.805 330.5 11.6 325.3 10.3
2002-03-26 07:54:35 51°14.598 2°54.79 330.5 11.6 325.3 10.3
2002-03-26 07:54:40 51°14.611 2°54.776 330.3 11.7 325.4 10.2
2002-03-26 07:54:45 51°14.625 2°54.761 330.7 11.7 325.4 10.2
2002-03-26 07:54:50 51°14.638 2°54.746 330.3 11.7 325.6 10.2
2002-03-26 07:54:55 51°14.652 2°54.732 330.3 11.7 325.4 10.2
2002-03-26 07:55:00 51°14.665 2°54.717 330.3 11.7 325.4 10.2
2002-03-26 07:55:05 51°14.679 2°54.702 330.3 11.8 325.4 10.2
2002-03-26 07:55:10 51°14.692 2°54.687 330.3 11.8 325.2 10.3
2002-03-26 07:55:15 51°14.705 2°54.672 330.3 11.8 325.2 10.3
2002-03-26 07:55:20 51°14.719 2°54.658 330.3 11.8 325.4 10.4
2002-03-26 07:55:25 51°14.732 2°54.643 330.8 11.8 325.7 10.4
2002-03-26 07:55:30 51°14.746 2°54.629 332 11.8 326.7 10.4
2002-03-26 07:55:35 51°14.76 2°54.616 333.7 11.8 327.9 10.3
2002-03-26 07:55:40 51°14.775 2°54.603 335 11.8 329.7 10.3
2002-03-26 07:55:45 51°14.789 2°54.591 336.5 11.8 330 10.3
2002-03-26 07:55:50 51°14.804 2°54.578 337 11.8 331.6 10.3
2002-03-26 07:55:55 51°14.818 2°54.567 338.2 11.9 332.4 10.3
2002-03-26 07:56:00 51°14.833 2°54.555 338.3 11.9 333.2 10.4
2002-03-26 07:56:05 51°14.848 2°54.543 338.3 11.9 333.1 10.3
2002-03-26 07:56:10 51°14.862 2°54.531 338.2 11.9 333 10.2
2002-03-26 07:56:15 51°14.877 2°54.519 338 11.9 332.5 10.1
2002-03-26 07:56:20 51°14.892 2°54.507 337.7 11.9 332.5 10.1
2002-03-26 07:56:25 51°14.906 2°54.494 337.3 11.9 331.7 9.9
2002-03-26 07:56:30 51°14.921 2°54.482 337.2 11.9 332.2 9.9
2002-03-26 07:56:35 51°14.935 2°54.469 336.8 11.9 331 9.8
2002-03-26 07:56:39 51°14.947 2°54.459 336.8 11.9 331.9 9.6
2002-03-26 07:56:44 51°14.961 2°54.446 336.5 11.9 330.6 9.5
2002-03-26 07:56:49 51°14.976 2°54.434 336.8 11.9 331.7 9.5
2002-03-26 07:56:55 51°14.992 2°54.418 336.2 11.9 330.4 9.4
2002-03-26 07:57:00 51°15.007 2°54.405 336.8 11.9 331.5 9.3
2002-03-26 07:57:05 51°15.021 2°54.391 335.8 12 330.2 9.3
2002-03-26 07:57:10 51°15.036 2°54.379 337.2 12.1 331.4 9.4
2002-03-26 07:57:15 51°15.051 2°54.365 335.8 12.2 330.2 9.3
2002-03-26 07:57:19 51°15.063 2°54.356 337.3 12.2 331.5 9.4
2002-03-26 07:57:25 51°15.081 2°54.339 335.8 12.4 330.5 9.3
2002-03-26 07:57:30 51°15.097 2°54.327 337.7 12.5 332.3 9.4
2002-03-26 07:57:35 51°15.111 2°54.312 335.5 12.5 330.4 9.5
2002-03-26 07:57:40 51°15.127 2°54.3 337.7 12.5 331.5 9.5
2002-03-26 07:57:45 51°15.142 2°54.285 335.2 12.6 330.3 9.6
2002-03-26 07:57:50 51°15.158 2°54.273 337.2 12.7 331.9 9.6
2002-03-26 07:57:54 51°15.17 2°54.26 335 12.9 330.1 9.7
2002-03-26 07:58:00 51°15.19 2°54.245 337 13 331.3 9.7
2002-03-26 07:58:05 51°15.205 2°54.228 334.5 13.1 330 9.7
2002-03-26 07:58:10 51°15.221 2°54.215 336 13.2 329.1 9.8
2002-03-26 07:58:15 51°15.237 2°54.199 334.7 13.3 329.9 9.8
2002-03-26 07:58:20 51°15.253 2°54.185 336 13.3 330.4 9.9
2002-03-26 07:58:25 51°15.269 2°54.169 335.2 13.4 330.9 9.9
2002-03-26 07:58:30 51°15.286 2°54.156 336.3 13.4 329.5 10
2002-03-26 07:58:35 51°15.302 2°54.14 335.5 13.5 330.7 10.1
2002-03-26 07:58:40 51°15.318 2°54.127 336.5 13.5 329.6 10.1
2002-03-26 07:58:45 51°15.334 2°54.111 335.8 13.5 330.8 10.2
2002-03-26 07:58:50 51°15.351 2°54.097 336.3 13.5 330.6 10.3
2002-03-26 07:58:55 51°15.367 2°54.081 336.2 13.5 331.2 10.3
2002-03-26 07:59:00 51°15.383 2°54.067 336.5 13.6 330.7 10.5
2002-03-26 07:59:04 51°15.397 2°54.056 336.7 13.6 331.4 10.5
2002-03-26 07:59:10 51°15.416 2°54.038 336.7 13.6 330.7 10.5
2002-03-26 07:59:15 51°15.433 2°54.023 337.2 13.6 331.8 10.6
2002-03-26 07:59:20 51°15.449 2°54.009 336.8 13.6 330 10.7
2002-03-26 07:59:25 51°15.466 2°53.994 337.3 13.6 331.9 10.8
2002-03-26 07:59:30 51°15.482 2°53.979 336.3 13.6 330.3 10.8
2002-03-26 07:59:35 51°15.499 2°53.965 337.8 13.6 331.9 10.8
2002-03-26 07:59:40 51°15.515 2°53.949 336 13.7 329.9 10.9
2002-03-26 07:59:44 51°15.529 2°53.939 337.8 13.6 331.9 11
2002-03-26 07:59:50 51°15.548 2°53.92 336.3 13.6 329.9 11.1
2002-03-26 07:59:55 51°15.565 2°53.906 338.2 13.6 331.9 11.2
2002-03-26 08:00:00 51°15.581 2°53.89 335.7 13.6 329.6 11.3
2002-03-26 08:00:05 51°15.598 2°53.877 338 13.6 331.5 11.3
2002-03-26 08:00:09 51°15.61 2°53.863 335.2 13.6 328.9 11.5
2002-03-26 08:00:15 51°15.63 2°53.846 337.7 13.6 330.6 11.5
2002-03-26 08:00:20 51°15.646 2°53.829 335 13.6 328.8 11.6
2002-03-26 08:00:25 51°15.663 2°53.816 338.2 13.6 330.3 11.7
2002-03-26 08:00:30 51°15.679 2°53.799 335.5 13.7 328.6 11.7
2002-03-26 08:00:35 51°15.696 2°53.786 338 13.7 330.5 11.8
2002-03-26 08:00:40 51°15.711 2°53.768 335.3 13.7 328.6 11.8
2002-03-26 08:00:45 51°15.729 2°53.756 338 13.6 330.5 11.9
2002-03-26 08:00:49 51°15.741 2°53.742 335.8 13.6 330.5 12
2002-03-26 08:00:55 51°15.761 2°53.726 337.7 13.6 330.7 12
2002-03-26 08:01:00 51°15.777 2°53.709 335.8 13.6 329.6 12.1
2002-03-26 08:01:05 51°15.794 2°53.696 337.3 13.6 330.1 12.1
2002-03-26 08:01:10 51°15.81 2°53.679 336 13.6 329.9 12.2
2002-03-26 08:01:15 51°15.827 2°53.666 336.7 13.6 329.8 12.2
2002-03-26 08:01:20 51°15.843 2°53.65 336 13.6 330.1 12.3
2002-03-26 08:01:25 51°15.859 2°53.635 336.2 13.6 329.5 12.3
2002-03-26 08:01:30 51°15.876 2°53.62 336.5 13.6 330.6 12.4
2002-03-26 08:01:35 51°15.892 2°53.605 336 13.7 329.4 12.3
2002-03-26 08:01:40 51°15.909 2°53.59 336.7 13.6 331.3 12.4
2002-03-26 08:01:45 51°15.925 2°53.575 335.8 13.7 329.3 12.4
2002-03-26 08:01:50 51°15.942 2°53.56 336.8 13.7 330.8 12.5
2002-03-26 08:01:55 51°15.957 2°53.544 335.3 13.7 328.9 12.5
2002-03-26 08:02:00 51°15.974 2°53.53 337 13.6 330.8 12.6
2002-03-26 08:02:05 51°15.99 2°53.514 334.8 13.6 328.8 12.6
2002-03-26 08:02:10 51°16.007 2°53.5 337.7 13.7 330.9 12.7
2002-03-26 08:02:15 51°16.023 2°53.483 334.8 13.7 329 12.7
2002-03-26 08:02:20 51°16.04 2°53.47 337.5 13.7 331 12.7
2002-03-26 08:02:25 51°16.055 2°53.453 335 13.7 329.2 12.8
2002-03-26 08:02:30 51°16.072 2°53.44 337.3 13.7 329.9 12.8
2002-03-26 08:02:35 51°16.088 2°53.422 335.2 13.7 329.4 12.8
2002-03-26 08:02:40 51°16.105 2°53.409 337.5 13.7 330 12.9
2002-03-26 08:02:45 51°16.121 2°53.392 335.5 13.7 329.7 12.9
2002-03-26 08:02:50 51°16.138 2°53.379 337.8 13.6 331.3 13
2002-03-26 08:02:55 51°16.154 2°53.362 335.5 13.6 330 13
2002-03-26 08:03:00 51°16.17 2°53.349 337.3 13.6 330.8 13
2002-03-26 08:03:05 51°16.187 2°53.332 336 13.7 330.2 13.1
2002-03-26 08:03:10 51°16.203 2°53.319 337 13.7 329.5 13.1
2002-03-26 08:03:15 51°16.22 2°53.303 336.2 13.7 330.6 13.1
2002-03-26 08:03:20 51°16.236 2°53.288 336.3 13.7 330 13.1
2002-03-26 08:03:25 51°16.252 2°53.273 336.2 13.7 330.5 13.2
2002-03-26 08:03:30 51°16.269 2°53.259 336.3 13.6 330.2 13.2
2002-03-26 08:03:35 51°16.285 2°53.244 337.5 13.6 331.7 13.2
2002-03-26 08:03:40 51°16.301 2°53.229 336 13.5 330.5 13.3
2002-03-26 08:03:45 51°16.318 2°53.216 337.7 13.5 332.2 13.3
2002-03-26 08:03:50 51°16.334 2°53.2 336 13.5 330.1 13.3
2002-03-26 08:03:55 51°16.351 2°53.187 337.8 13.4 332.3 13.3
2002-03-26 08:04:00 51°16.366 2°53.172 335.5 13.4 330.2 13.3
2002-03-26 08:04:05 51°16.383 2°53.159 338.2 13.3 332.3 13.3
2002-03-26 08:04:09 51°16.395 2°53.145 335.3 13.3 329.8 13.3
2002-03-26 08:04:15 51°16.416 2°53.131 338.2 13.3 332 13.3
2002-03-26 08:04:19 51°16.428 2°53.117 335.2 13.3 330.7 13.2
2002-03-26 08:04:25 51°16.448 2°53.102 338 13.3 331.7 13.2
2002-03-26 08:04:29 51°16.46 2°53.089 335.3 13.3 331.1 13.1
2002-03-26 08:04:35 51°16.479 2°53.073 337.7 13.3 331.4 13.1
2002-03-26 08:04:40 51°16.495 2°53.057 335.7 13.3 331.5 13.1
2002-03-26 08:04:45 51°16.511 2°53.045 337.7 13.2 331.1 13
2002-03-26 08:04:49 51°16.524 2°53.032 335.7 13.2 331.8 12.9
2002-03-26 08:04:55 51°16.543 2°53.016 337.2 13.2 330.5 12.8
2002-03-26 08:05:00 51°16.559 2°53.001 336.3 13.2 330.9 12.8
2002-03-26 08:05:05 51°16.575 2°52.987 336.3 13.2 330.2 12.7
2002-03-26 08:05:10 51°16.591 2°52.973 336.5 13.2 331 12.6
2002-03-26 08:05:15 51°16.607 2°52.958 335.8 13.2 329.7 12.5
2002-03-26 08:05:20 51°16.623 2°52.944 336.5 13.2 331.2 12.5
2002-03-26 08:05:24 51°16.635 2°52.931 335 13.2 329.4 12.4
2002-03-26 08:05:29 51°16.652 2°52.919 336.8 13.2 331.4 12.3
2002-03-26 08:05:35 51°16.67 2°52.9 334.8 13.2 329.4 12.2
2002-03-26 08:05:39 51°16.684 2°52.89 337.5 13.2 331.2 12.1
2002-03-26 08:05:45 51°16.702 2°52.871 335 13.2 329.7 11.9
2002-03-26 08:05:50 51°16.719 2°52.859 337.8 13.2 331.2 11.8
2002-03-26 08:05:55 51°16.734 2°52.842 335.2 13.2 330.2 11.6
2002-03-26 08:06:00 51°16.751 2°52.83 337.7 13.1 331.1 11.4
2002-03-26 08:06:05 51°16.767 2°52.815 335.7 13.1 330.6 10.9
2002-03-26 08:06:10 51°16.783 2°52.803 338 13 332.3 10.6
2002-03-26 08:06:15 51°16.798 2°52.787 335.7 13 330.8 10.5
2002-03-26 08:06:20 51°16.815 2°52.775 337.5 13 331.9 10.7
2002-03-26 08:06:25 51°16.83 2°52.759 336 13 331.2 10.6
2002-03-26 08:06:30 51°16.846 2°52.747 337.5 13 332 10.5
2002-03-26 08:06:35 51°16.862 2°52.733 337.7 13 332.4 10.3
2002-03-26 08:06:40 51°16.878 2°52.721 338.7 13.1 332.9 10.3
2002-03-26 08:06:45 51°16.894 2°52.707 338.8 13.1 333.6 10.4
2002-03-26 08:06:50 51°16.911 2°52.695 339.8 13.1 332.9 10.4
2002-03-26 08:06:55 51°16.927 2°52.683 340 13 335.2 10.7
2002-03-26 08:07:00 51°16.943 2°52.67 340 13.1 334.5 10.6
2002-03-26 08:07:05 51°16.96 2°52.658 341 13.1 336 10.8
2002-03-26 08:07:09 51°16.973 2°52.648 340.8 13.2 334.7 11.1
2002-03-26 08:07:15 51°16.994 2°52.635 342.7 13.2 337.2 11.3
2002-03-26 08:07:19 51°17.007 2°52.625 342 13.2 335.8 11.3
2002-03-26 08:07:25 51°17.027 2°52.613 343.5 13.2 338.1 10.9
2002-03-26 08:07:30 51°17.044 2°52.6 342 13.2 336.3 10.7
2002-03-26 08:07:35 51°17.061 2°52.59 344.3 13.2 338.5 10.6
2002-03-26 08:07:40 51°17.077 2°52.578 341.5 13.1 336.7 10.6
2002-03-26 08:07:45 51°17.095 2°52.568 344.2 13.1 338.4 10.4
2002-03-26 08:07:50 51°17.111 2°52.555 341.7 13.1 336.3 10.6
2002-03-26 08:07:55 51°17.128 2°52.546 344.2 13.1 338.2 10.6
2002-03-26 08:08:00 51°17.144 2°52.533 341.2 13.1 336.4 10.7
2002-03-26 08:08:05 51°17.162 2°52.523 343.7 13.1 337.7 10.8
2002-03-26 08:08:10 51°17.178 2°52.51 341 13.2 335.9 10.9
2002-03-26 08:08:15 51°17.195 2°52.5 343.2 13.2 336.5 10.9
2002-03-26 08:08:20 51°17.211 2°52.487 340.7 13.2 335.7 11
2002-03-26 08:08:25 51°17.228 2°52.476 342.2 13.2 336.2 11
2002-03-26 08:08:30 51°17.245 2°52.463 340.5 13.2 335.3 11.2
2002-03-26 08:08:35 51°17.262 2°52.452 341.7 13.2 334.7 11.2
2002-03-26 08:08:40 51°17.279 2°52.439 340.7 13.2 336.4 11.2
2002-03-26 08:08:45 51°17.295 2°52.429 342.7 13.2 336.2 11.3
2002-03-26 08:08:50 51°17.313 2°52.418 344 13.2 338.3 11.2
2002-03-26 08:08:55 51°17.33 2°52.409 346.3 13.2 339.9 11.3
2002-03-26 08:08:59 51°17.344 2°52.403 347.7 13.2 342.3 11.4
2002-03-26 08:09:04 51°17.361 2°52.395 350 13.2 343.5 11.5
2002-03-26 08:09:10 51°17.383 2°52.387 351.5 13.2 346.1 11.2
2002-03-26 08:09:15 51°17.401 2°52.381 353.2 13.2 347.1 11.4
2002-03-26 08:09:20 51°17.419 2°52.377 355.5 13.2 348.6 11.3
2002-03-26 08:09:25 51°17.437 2°52.373 357.2 13.2 350.9 11.3
2002-03-26 08:09:29 51°17.452 2°52.371 359.2 13.2 353.8 11.4
2002-03-26 08:09:35 51°17.473 2°52.367 359 13.2 353.5 11.5
2002-03-26 08:09:40 51°17.491 2°52.366 1.3 13.1 356 11.4
2002-03-26 08:09:45 51°17.51 2°52.362 359.2 13.2 354.4 11.5
2002-03-26 08:09:50 51°17.528 2°52.362 2.3 13.1 356.8 11.5
2002-03-26 08:09:55 51°17.546 2°52.358 359.2 13.1 354.8 11.5
2002-03-26 08:10:00 51°17.564 2°52.358 1.7 13.1 356.4 11.5
2002-03-26 08:10:05 51°17.582 2°52.352 358.3 13.1 354.4 11.3
2002-03-26 08:10:10 51°17.6 2°52.352 0.8 13.1 354.5 11.4
2002-03-26 08:10:15 51°17.618 2°52.347 358 13.1 354.2 11.4
2002-03-26 08:10:19 51°17.633 2°52.346 359.8 13.1 354.8 11.5
2002-03-26 08:10:25 51°17.655 2°52.341 357.8 13.1 354.1 11.4
2002-03-26 08:10:30 51°17.673 2°52.34 359.5 13.1 353.2 11.3
2002-03-26 08:10:35 51°17.691 2°52.336 358.8 13.1 354.8 11.5
2002-03-26 08:10:40 51°17.709 2°52.335 0.3 13.1 354 11.4
2002-03-26 08:10:44 51°17.723 2°52.333 0.7 13.1 356.2 11.4
2002-03-26 08:10:50 51°17.745 2°52.33 0.3 13.1 354.8 11.4
2002-03-26 08:10:55 51°17.763 2°52.329 1.7 13.1 357.1 11.5
2002-03-26 08:11:00 51°17.781 2°52.327 1.5 13.1 355.8 11.5
2002-03-26 08:11:05 51°17.799 2°52.326 2.7 13.1 358.1 11.5
2002-03-26 08:11:10 51°17.818 2°52.324 1.5 13.1 356.7 11.5
2002-03-26 08:11:15 51°17.836 2°52.324 4 13.1 358.8 11.6
2002-03-26 08:11:20 51°17.854 2°52.321 0.8 13.1 356.6 11.6
2002-03-26 08:11:25 51°17.872 2°52.322 3.8 13.1 356.6 11.6
2002-03-26 08:11:30 51°17.891 2°52.319 1.2 13.1 357.2 11.6
2002-03-26 08:11:35 51°17.909 2°52.32 4.2 13.1 358.5 11.6
2002-03-26 08:11:40 51°17.927 2°52.317 0.7 13.1 356.6 11.6
2002-03-26 08:11:44 51°17.941 2°52.317 3.3 13.1 357.8 11.7
2002-03-26 08:11:50 51°17.963 2°52.314 0.7 13.1 357.6 11.7
2002-03-26 08:11:55 51°17.981 2°52.315 3.2 13.1 357.4 11.6
2002-03-26 08:12:00 51°18 2°52.311 1.2 13.1 356.7 11.6
2002-03-26 08:12:05 51°18.018 2°52.312 2.8 13.1 357.2 11.7
2002-03-26 08:12:10 51°18.036 2°52.309 1.5 13.1 358.3 11.7
2002-03-26 08:12:15 51°18.054 2°52.309 2.7 13.1 357.1 11.7
2002-03-26 08:12:20 51°18.072 2°52.308 3.3 13.1 359 11.7
2002-03-26 08:12:25 51°18.091 2°52.31 4.8 13.1 359.9 11.7
2002-03-26 08:12:30 51°18.109 2°52.312 9.2 13.1 4 11.8
2002-03-26 08:12:35 51°18.126 2°52.319 15 13.1 5.9 11.8
2002-03-26 08:12:40 51°18.143 2°52.329 20.8 13 15.8 11.8
2002-03-26 08:12:45 51°18.159 2°52.341 26.7 13 20.9 11.8
2002-03-26 08:12:50 51°18.175 2°52.356 32.7 12.9 28.4 11.9
2002-03-26 08:12:55 51°18.189 2°52.374 39.2 12.9 33.4 11.9
2002-03-26 08:12:59 51°18.2 2°52.389 44.8 12.9 38.3 11.9
2002-03-26 08:13:05 51°18.213 2°52.416 51 12.9 45.8 12
2002-03-26 08:13:09 51°18.222 2°52.434 57 12.9 50.5 12
2002-03-26 08:13:15 51°18.232 2°52.465 63 12.9 57.8 12
2002-03-26 08:13:20 51°18.239 2°52.491 68.8 13 64.4 12
2002-03-26 08:13:25 51°18.245 2°52.518 71.5 13 64.4 12.1
2002-03-26 08:13:30 51°18.252 2°52.545 69.7 13.1 67.4 12.1
2002-03-26 08:13:35 51°18.26 2°52.57 67.2 13.1 65.9 12.2
2002-03-26 08:13:40 51°18.269 2°52.595 63.2 13.1 61.4 12.2
2002-03-26 08:13:45 51°18.28 2°52.619 59.3 13.1 58.2 12.2
2002-03-26 08:13:49 51°18.288 2°52.638 56.7 13.1 55.5 12.2
2002-03-26 08:13:55 51°18.302 2°52.665 54 13.1 52.6 12.2
2002-03-26 08:14:00 51°18.314 2°52.688 54.2 13.2 51.3 12.2
2002-03-26 08:14:05 51°18.325 2°52.711 54.3 13.2 51.8 12.2
2002-03-26 08:14:09 51°18.333 2°52.73 56.2 13.2 51.7 12.2
2002-03-26 08:14:15 51°18.346 2°52.759 57.3 13.3 54.2 12.2
2002-03-26 08:14:20 51°18.356 2°52.784 59.8 13.3 54.9 12
2002-03-26 08:14:25 51°18.365 2°52.809 62 13.3 58.7 12.2
2002-03-26 08:14:30 51°18.374 2°52.835 63.8 13.4 60.3 12.2
2002-03-26 08:14:35 51°18.382 2°52.862 66 13.3 62.1 12.2
2002-03-26 08:14:40 51°18.39 2°52.889 66.8 13.4 64 12.2
2002-03-26 08:14:45 51°18.397 2°52.916 68.5 13.4 65.8 12.3
2002-03-26 08:14:50 51°18.405 2°52.944 69.5 13.4 66.7 12.3
2002-03-26 08:14:55 51°18.411 2°52.971 71 13.4 68.5 12.3
2002-03-26 08:14:59 51°18.417 2°52.993 71 13.4 67.7 12.3
2002-03-26 08:15:05 51°18.424 2°53.027 71.7 13.4 69.8 12.3
2002-03-26 08:15:10 51°18.432 2°53.054 71.5 13.5 68.1 12.3
2002-03-26 08:15:15 51°18.438 2°53.082 71.7 13.5 70 12.3
2002-03-26 08:15:20 51°18.445 2°53.11 71.5 13.4 68.1 12.3
2002-03-26 08:15:25 51°18.452 2°53.138 71.2 13.4 69.4 12.3
2002-03-26 08:15:30 51°18.459 2°53.165 70.8 13.5 67.8 12.3
2002-03-26 08:15:35 51°18.465 2°53.193 71 13.4 69 12.3
2002-03-26 08:15:40 51°18.473 2°53.22 70 13.4 67.5 12.3
2002-03-26 08:15:45 51°18.48 2°53.248 70 13.5 68 12.3
2002-03-26 08:15:49 51°18.486 2°53.269 69 13.5 66.5 12.3
2002-03-26 08:15:54 51°18.492 2°53.297 69.8 13.4 67.6 12.3
2002-03-26 08:16:00 51°18.502 2°53.329 69 13.4 66.3 12.3
2002-03-26 08:16:05 51°18.509 2°53.357 69.3 13.5 67.5 12.3
2002-03-26 08:16:10 51°18.517 2°53.384 68.8 13.4 66.1 12.4
2002-03-26 08:16:15 51°18.523 2°53.411 69.7 13.4 66.9 12.4
2002-03-26 08:16:20 51°18.532 2°53.438 68.5 13.4 65.8 12.3
2002-03-26 08:16:25 51°18.538 2°53.466 69.8 13.4 67.7 12.3
2002-03-26 08:16:30 51°18.546 2°53.493 69.2 13.4 66.1 12.3
2002-03-26 08:16:35 51°18.552 2°53.52 70.7 13.4 68.4 12.3
2002-03-26 08:16:40 51°18.56 2°53.548 70.3 13.3 67.1 12.3
2002-03-26 08:16:45 51°18.566 2°53.576 71.7 13.4 69.1 12.3
2002-03-26 08:16:50 51°18.573 2°53.603 70.8 13.4 68 12.2
2002-03-26 08:16:55 51°18.579 2°53.631 72.3 13.4 69.5 12.4
2002-03-26 08:17:00 51°18.587 2°53.658 71.3 13.4 68.6 12.3
2002-03-26 08:17:05 51°18.592 2°53.687 72.8 13.4 70 12.4
2002-03-26 08:17:10 51°18.599 2°53.714 71.5 13.4 68.7 12.4
2002-03-26 08:17:15 51°18.605 2°53.742 72.5 13.4 69.9 12.3
2002-03-26 08:17:20 51°18.612 2°53.769 72 13.4 69 12.3
2002-03-26 08:17:25 51°18.619 2°53.797 72.3 13.4 69.6 12.2
2002-03-26 08:17:30 51°18.625 2°53.826 71.8 13.5 69 12.3
2002-03-26 08:17:35 51°18.631 2°53.853 72.3 13.4 69.2 12.3
2002-03-26 08:17:40 51°18.639 2°53.88 71.8 13.4 68.7 12.3
2002-03-26 08:17:45 51°18.645 2°53.909 72.2 13.4 68.9 12.3
2002-03-26 08:17:50 51°18.652 2°53.936 71.7 13.5 69.1 12.3
2002-03-26 08:17:55 51°18.658 2°53.964 72 13.5 69.6 12.3
2002-03-26 08:18:00 51°18.666 2°53.991 71.7 13.4 68.5 12.2
2002-03-26 08:18:05 51°18.672 2°54.02 71.8 13.5 69.4 12.3
2002-03-26 08:18:09 51°18.678 2°54.042 71.2 13.5 68.2 12.3
2002-03-26 08:18:15 51°18.686 2°54.075 71.5 13.5 69.3 12.3
2002-03-26 08:18:20 51°18.693 2°54.102 71 13.4 67.9 12.3
2002-03-26 08:18:25 51°18.699 2°54.13 72 13.4 69.4 12.3
2002-03-26 08:18:30 51°18.707 2°54.158 71 13.4 68 12.3
2002-03-26 08:18:35 51°18.713 2°54.186 71.7 13.4 69.3 12.3
2002-03-26 08:18:40 51°18.72 2°54.213 71.2 13.4 67.7 12.3
2002-03-26 08:18:45 51°18.727 2°54.241 71.7 13.4 69.3 12.4
2002-03-26 08:18:49 51°18.733 2°54.262 70.8 13.4 67.5 12.3
2002-03-26 08:18:55 51°18.74 2°54.296 71.5 13.4 69.2 12.3
2002-03-26 08:19:00 51°18.748 2°54.323 71.3 13.4 67.8 12.4
2002-03-26 08:19:05 51°18.754 2°54.351 71.7 13.3 69.4 12.3
2002-03-26 08:19:10 51°18.761 2°54.378 71.3 13.3 67.9 12.3
2002-03-26 08:19:15 51°18.767 2°54.406 72.2 13.4 69.5 12.4
2002-03-26 08:19:20 51°18.775 2°54.433 71.7 13.4 68.4 12.4
2002-03-26 08:19:25 51°18.78 2°54.461 72.8 13.4 70.1 12.4
2002-03-26 08:19:30 51°18.788 2°54.489 72 13.4 68.8 12.4
2002-03-26 08:19:35 51°18.793 2°54.517 72.8 13.4 70.3 12.3
2002-03-26 08:19:40 51°18.801 2°54.545 72.3 13.4 69 12.4
2002-03-26 08:19:45 51°18.806 2°54.573 72.8 13.4 70.4 12.4
2002-03-26 08:19:49 51°18.812 2°54.594 72.5 13.4 69.3 12.3
2002-03-26 08:19:55 51°18.819 2°54.628 72.8 13.4 70.5 12.3
2002-03-26 08:20:00 51°18.826 2°54.656 72.2 13.4 69.2 12.3
2002-03-26 08:20:05 51°18.832 2°54.684 72.8 13.4 70.4 12.3
2002-03-26 08:20:09 51°18.838 2°54.705 72.3 13.4 69.2 12.3
2002-03-26 08:20:15 51°18.845 2°54.739 72.5 13.4 70.1 12.3
2002-03-26 08:20:20 51°18.852 2°54.767 72.7 13.4 68.9 12.3
2002-03-26 08:20:25 51°18.858 2°54.795 72.7 13.4 70.2 12.3
2002-03-26 08:20:30 51°18.865 2°54.823 73 13.4 69.8 12.3
2002-03-26 08:20:35 51°18.871 2°54.851 73.7 13.4 70.7 12.3
2002-03-26 08:20:40 51°18.877 2°54.88 74 13.4 70.9 12.3
2002-03-26 08:20:45 51°18.883 2°54.908 74.5 13.4 71.7 12.3
2002-03-26 08:20:50 51°18.888 2°54.936 75.2 13.4 71.9 12.3
2002-03-26 08:20:55 51°18.894 2°54.965 75 13.5 72.4 12.3
2002-03-26 08:21:00 51°18.9 2°54.993 75.2 13.5 72.2 12.3
2002-03-26 08:21:05 51°18.906 2°55.022 75.3 13.5 72.2 12.1
2002-03-26 08:21:10 51°18.911 2°55.05 75.5 13.5 72.3 12.3
2002-03-26 08:21:15 51°18.917 2°55.079 75.3 13.5 72.3 12.3
2002-03-26 08:21:20 51°18.923 2°55.107 75.3 13.5 72.2 12.2
2002-03-26 08:21:25 51°18.929 2°55.135 74.8 13.5 72 12.2
2002-03-26 08:21:30 51°18.935 2°55.164 74.7 13.5 71.6 12.2
2002-03-26 08:21:35 51°18.941 2°55.192 74.7 13.5 71.5 12.2
2002-03-26 08:21:40 51°18.947 2°55.221 74.8 13.5 71.3 12.2
2002-03-26 08:21:45 51°18.953 2°55.249 75.2 13.5 71.8 12.2
2002-03-26 08:21:50 51°18.959 2°55.278 74.8 13.5 71.7 12.2
2002-03-26 08:21:55 51°18.964 2°55.306 74.7 13.5 71.8 12.2
2002-03-26 08:22:00 51°18.97 2°55.335 75 13.6 71.5 12.2
2002-03-26 08:22:05 51°18.976 2°55.363 74.7 13.6 71.6 12.1
2002-03-26 08:22:10 51°18.983 2°55.391 74.3 13.5 71.1 12.2
2002-03-26 08:22:15 51°18.988 2°55.42 74.7 13.5 71.2 12.2
2002-03-26 08:22:20 51°18.995 2°55.448 74.3 13.6 71 12.2
2002-03-26 08:22:24 51°18.999 2°55.471 74.8 13.6 71.3 12.2
2002-03-26 08:22:30 51°19.007 2°55.505 74.7 13.6 71.3 12.2
2002-03-26 08:22:35 51°19.013 2°55.534 74.8 13.6 71.4 12.1
2002-03-26 08:22:40 51°19.019 2°55.562 74.5 13.6 71.4 12.1
2002-03-26 08:22:44 51°19.023 2°55.585 74.8 13.6 71.5 12.2
2002-03-26 08:22:49 51°19.03 2°55.614 74 13.6 71 12.1
2002-03-26 08:22:55 51°19.037 2°55.648 74.5 13.6 70.9 12.1
2002-03-26 08:23:00 51°19.044 2°55.675 74 13.6 70.6 12.1
2002-03-26 08:23:05 51°19.049 2°55.704 74.5 13.6 70.9 12.1
2002-03-26 08:23:10 51°19.056 2°55.732 74.3 13.6 70.6 12.1
2002-03-26 08:23:15 51°19.062 2°55.761 74.5 13.6 70.9 12
2002-03-26 08:23:20 51°19.068 2°55.789 74.7 13.6 71 12
2002-03-26 08:23:25 51°19.074 2°55.818 75 13.6 71.2 12
2002-03-26 08:23:30 51°19.08 2°55.846 75 13.6 71.2 12
2002-03-26 08:23:35 51°19.086 2°55.875 74.7 13.6 71.3 12
2002-03-26 08:23:40 51°19.092 2°55.904 74.8 13.6 71.3 12.1
2002-03-26 08:23:45 51°19.099 2°55.932 74.3 13.6 71 11.9
2002-03-26 08:23:50 51°19.104 2°55.96 75 13.5 71.1 12
2002-03-26 08:23:55 51°19.111 2°55.989 74.7 13.5 71.1 11.9
2002-03-26 08:23:59 51°19.115 2°56.012 74.7 13.6 71 11.7
2002-03-26 08:24:05 51°19.123 2°56.046 74.3 13.6 70.8 12
2002-03-26 08:24:10 51°19.129 2°56.074 74.8 13.6 71.2 12
2002-03-26 08:24:15 51°19.135 2°56.103 74.3 13.6 71.2 11.9
2002-03-26 08:24:20 51°19.141 2°56.131 74.5 13.6 71 11.9
2002-03-26 08:24:25 51°19.148 2°56.159 74.2 13.6 70.7 11.8
2002-03-26 08:24:30 51°19.154 2°56.188 74.5 13.6 71.1 11.8
2002-03-26 08:24:35 51°19.16 2°56.217 74.3 13.6 70.7 12.1
2002-03-26 08:24:40 51°19.166 2°56.245 74.5 13.6 71.2 11.9
2002-03-26 08:24:45 51°19.172 2°56.274 74.5 13.6 70.8 11.9
2002-03-26 08:24:50 51°19.179 2°56.302 74.3 13.6 70.9 11.9
2002-03-26 08:24:55 51°19.185 2°56.331 74.5 13.6 70.8 11.8
2002-03-26 08:25:00 51°19.191 2°56.359 74.3 13.6 70.7 11.9
2002-03-26 08:25:05 51°19.197 2°56.387 75 13.6 70.7 11.8
2002-03-26 08:25:10 51°19.203 2°56.415 74.8 13.5 71 11.7
2002-03-26 08:25:15 51°19.209 2°56.443 74.2 13.6 70.9 11.8
2002-03-26 08:25:20 51°19.216 2°56.472 74 13.6 70.4 11.8
2002-03-26 08:25:25 51°19.222 2°56.5 74.5 13.5 70.6 11.9
2002-03-26 08:25:30 51°19.228 2°56.528 74.7 13.5 70.8 11.8
2002-03-26 08:25:35 51°19.234 2°56.557 74.5 13.5 70.9 11.8
2002-03-26 08:25:40 51°19.241 2°56.586 74.7 13.6 70.8 11.8
2002-03-26 08:25:45 51°19.247 2°56.614 74.8 13.6 70.8 11.8
2002-03-26 08:25:50 51°19.253 2°56.642 74.7 13.5 71 11.7
2002-03-26 08:25:55 51°19.259 2°56.671 74.3 13.5 70.7 11.7
2002-03-26 08:26:00 51°19.265 2°56.699 74.3 13.6 70.6 11.8
2002-03-26 08:26:05 51°19.272 2°56.727 74.5 13.6 70.5 11.7
2002-03-26 08:26:10 51°19.278 2°56.756 74.8 13.5 70.7 11.7
2002-03-26 08:26:15 51°19.284 2°56.784 74.3 13.5 70.7 11.7
2002-03-26 08:26:20 51°19.29 2°56.813 74.2 13.6 70.5 11.7
2002-03-26 08:26:25 51°19.297 2°56.841 74.3 13.6 70.4 11.7
2002-03-26 08:26:30 51°19.303 2°56.869 74.8 13.6 70.9 11.7
2002-03-26 08:26:35 51°19.309 2°56.898 74.5 13.6 70.8 11.3
2002-03-26 08:26:40 51°19.315 2°56.926 74.7 13.6 70.9 11.6
2002-03-26 08:26:45 51°19.322 2°56.955 74.5 13.6 70.8 11.6
2002-03-26 08:26:50 51°19.328 2°56.983 74.7 13.6 70.9 11.6
2002-03-26 08:26:55 51°19.334 2°57.012 74.3 13.6 71.1 11.5
2002-03-26 08:27:00 51°19.34 2°57.04 74.5 13.6 70.9 11.7
2002-03-26 08:27:05 51°19.347 2°57.068 74 13.6 70.7 11.6
2002-03-26 08:27:10 51°19.353 2°57.097 74.3 13.6 70.9 11.6
2002-03-26 08:27:15 51°19.36 2°57.125 73.8 13.6 70.9 11.5
2002-03-26 08:27:20 51°19.365 2°57.154 74.5 13.6 70.7 11.5
2002-03-26 08:27:25 51°19.372 2°57.182 74.5 13.6 70.9 11.5
2002-03-26 08:27:30 51°19.378 2°57.211 74.7 13.6 71.2 11.5
2002-03-26 08:27:35 51°19.384 2°57.239 74.2 13.6 70.6 11.5
2002-03-26 08:27:40 51°19.39 2°57.268 74.7 13.6 71.1 11.5
2002-03-26 08:27:45 51°19.397 2°57.296 74.7 13.6 70.7 11.5
2002-03-26 08:27:50 51°19.402 2°57.325 75.2 13.6 71.6 11.5
2002-03-26 08:27:55 51°19.409 2°57.354 74.7 13.6 70.8 11.4
2002-03-26 08:28:00 51°19.415 2°57.382 74.8 13.6 71.2 11.6
2002-03-26 08:28:05 51°19.421 2°57.411 74.8 13.6 70.9 11.4
2002-03-26 08:28:09 51°19.426 2°57.434 74.7 13.6 71.3 11.4
2002-03-26 08:28:15 51°19.433 2°57.468 74.5 13.6 70.8 11.4
2002-03-26 08:28:20 51°19.44 2°57.496 74.2 13.7 71.3 11.4
2002-03-26 08:28:25 51°19.446 2°57.525 75 13.7 70.9 11.5
2002-03-26 08:28:30 51°19.452 2°57.554 74.3 13.6 70.8 11.4
2002-03-26 08:28:35 51°19.458 2°57.583 74.7 13.6 70.7 11.4
2002-03-26 08:28:40 51°19.465 2°57.611 74.3 13.7 70.9 11.4
2002-03-26 08:28:45 51°19.47 2°57.64 74.8 13.7 71.1 11.4
2002-03-26 08:28:50 51°19.477 2°57.668 74.2 13.7 70.6 11.4
2002-03-26 08:28:55 51°19.483 2°57.697 74.7 13.7 70.7 11.4
2002-03-26 08:29:00 51°19.49 2°57.726 73.8 13.7 71 11.4
2002-03-26 08:29:05 51°19.495 2°57.755 74.7 13.7 70.7 11.3
2002-03-26 08:29:10 51°19.502 2°57.783 74 13.6 70.3 11.3
2002-03-26 08:29:15 51°19.508 2°57.812 74.3 13.7 70.5 11.3
2002-03-26 08:29:20 51°19.515 2°57.84 73.7 13.7 70.1 11.3
2002-03-26 08:29:25 51°19.521 2°57.869 74.5 13.7 70.8 11.2
2002-03-26 08:29:30 51°19.528 2°57.897 74.2 13.7 70.8 11.3
2002-03-26 08:29:35 51°19.533 2°57.926 74.5 13.7 71.1 11.3
2002-03-26 08:29:40 51°19.54 2°57.955 74.5 13.7 70.8 11.3
2002-03-26 08:29:45 51°19.546 2°57.983 74.7 13.7 71.2 11.3
2002-03-26 08:29:49 51°19.551 2°58.006 75 13.7 70.9 11.3
2002-03-26 08:29:55 51°19.559 2°58.041 75.3 13.7 71.7 11.3
2002-03-26 08:30:00 51°19.565 2°58.07 75 13.7 71.1 11.2
2002-03-26 08:30:05 51°19.571 2°58.098 75.2 13.7 71.4 11.2
2002-03-26 08:30:10 51°19.577 2°58.127 74.8 13.7 71.1 11.2
2002-03-26 08:30:15 51°19.584 2°58.156 74.2 13.7 70.9 11.1
2002-03-26 08:30:20 51°19.59 2°58.184 74 13.7 70.4 11.2
2002-03-26 08:30:25 51°19.596 2°58.212 74 13.6 70.6 11.1
2002-03-26 08:30:30 51°19.602 2°58.242 74.3 13.7 70.5 11
2002-03-26 08:30:35 51°19.609 2°58.27 74.7 13.7 70.8 11.1
2002-03-26 08:30:40 51°19.615 2°58.299 75.2 13.8 71.4 11.1
2002-03-26 08:30:45 51°19.621 2°58.328 75.5 13.7 71.5 11.1
2002-03-26 08:30:50 51°19.627 2°58.357 75.3 13.7 71.7 11.2
2002-03-26 08:30:54 51°19.632 2°58.38 74.3 13.7 70.8 11.1
2002-03-26 08:31:00 51°19.639 2°58.414 75 13.7 71.2 11.2
2002-03-26 08:31:04 51°19.644 2°58.436 74.7 13.6 70.6 11.2
2002-03-26 08:31:10 51°19.651 2°58.471 74.5 13.7 71.1 11.1
2002-03-26 08:31:15 51°19.658 2°58.5 74.2 13.8 70.5 11.2
2002-03-26 08:31:20 51°19.664 2°58.529 74.5 13.8 70.8 11.1
2002-03-26 08:31:25 51°19.67 2°58.557 75.2 13.7 70.9 11.1
2002-03-26 08:31:30 51°19.676 2°58.586 75 13.7 71.4 11.1
2002-03-26 08:31:35 51°19.682 2°58.615 74.5 13.8 71.1 11.1
2002-03-26 08:31:40 51°19.689 2°58.644 74.3 13.8 70.6 10.8
2002-03-26 08:31:45 51°19.695 2°58.672 74.3 13.7 70.5 11.1
2002-03-26 08:31:50 51°19.702 2°58.701 74 13.8 70.5 11.1
2002-03-26 08:31:55 51°19.708 2°58.73 74.5 13.8 70.4 11
2002-03-26 08:32:00 51°19.715 2°58.759 74.3 13.8 70.5 11
2002-03-26 08:32:05 51°19.72 2°58.788 74.8 13.8 70.9 11
2002-03-26 08:32:09 51°19.726 2°58.811 74.2 13.8 70.6 10.9
2002-03-26 08:32:15 51°19.733 2°58.845 74.5 13.8 70.8 10.9
2002-03-26 08:32:20 51°19.74 2°58.874 74.7 13.8 70.8 10.9
2002-03-26 08:32:25 51°19.746 2°58.903 74.8 13.8 71.3 10.9
2002-03-26 08:32:30 51°19.752 2°58.932 74.3 13.8 71.1 10.9
2002-03-26 08:32:35 51°19.758 2°58.961 74.8 13.8 71.2 10.8
2002-03-26 08:32:39 51°19.763 2°58.984 74.5 13.8 71.1 10.8
2002-03-26 08:32:45 51°19.77 2°59.019 75 13.8 71.4 10.9
2002-03-26 08:32:49 51°19.775 2°59.041 74.5 13.8 71 10.8
2002-03-26 08:32:55 51°19.783 2°59.076 74.5 13.8 71.2 10.6
2002-03-26 08:33:00 51°19.789 2°59.105 74.8 13.8 71.2 10.8
2002-03-26 08:33:05 51°19.795 2°59.134 74.7 13.8 71 10.8
2002-03-26 08:33:10 51°19.801 2°59.163 74.3 13.9 70.8 10.8
2002-03-26 08:33:15 51°19.808 2°59.192 74.2 13.9 70.6 10.7
2002-03-26 08:33:20 51°19.814 2°59.221 74 13.8 70.5 10.8
2002-03-26 08:33:25 51°19.821 2°59.25 74.2 13.8 70.7 10.7
2002-03-26 08:33:30 51°19.827 2°59.279 74.3 13.9 70.5 10.8
2002-03-26 08:33:35 51°19.833 2°59.307 74.3 13.8 70.6 10.7
2002-03-26 08:33:40 51°19.84 2°59.337 74.7 13.8 70.4 10.7
2002-03-26 08:33:45 51°19.846 2°59.365 74.5 13.8 70.9 10.7
2002-03-26 08:33:49 51°19.851 2°59.389 74.8 13.9 71.1 10.7
2002-03-26 08:33:55 51°19.859 2°59.423 74.5 13.9 70.8 10.7
2002-03-26 08:34:00 51°19.865 2°59.453 74.8 13.8 71.1 10.4
2002-03-26 08:34:05 51°19.871 2°59.482 74.5 13.9 70.9 10.7
2002-03-26 08:34:10 51°19.878 2°59.511 74.3 13.9 70.4 10.7
2002-03-26 08:34:15 51°19.884 2°59.539 73.7 13.9 70.2 10.7
2002-03-26 08:34:20 51°19.891 2°59.568 73.2 14 69.1 10.7
2002-03-26 08:34:25 51°19.899 2°59.597 71.7 14 68.2 10.7
2002-03-26 08:34:30 51°19.905 2°59.625 71.8 13.9 68 10.7
2002-03-26 08:34:35 51°19.914 2°59.653 70.7 13.8 67.3 10.7
2002-03-26 08:34:40 51°19.92 2°59.682 71.2 13.8 67.7 10.7
2002-03-26 08:34:45 51°19.928 2°59.71 70.8 13.8 67.2 10.7
2002-03-26 08:34:49 51°19.934 2°59.733 71.3 13.9 67.4 10.7
2002-03-26 08:34:55 51°19.944 2°59.767 70.7 13.9 67.1 10.7
2002-03-26 08:35:00 51°19.95 2°59.795 71 13.9 67.6 10.7
2002-03-26 08:35:05 51°19.958 2°59.823 70.8 13.9 66.8 10.7
2002-03-26 08:35:09 51°19.964 2°59.847 71 13.9 67.7 10.7
2002-03-26 08:35:15 51°19.973 2°59.88 70.8 13.9 66.8 10.5
2002-03-26 08:35:20 51°19.98 2°59.909 70.8 13.9 67.9 10.6
2002-03-26 08:35:25 51°19.988 2°59.937 71.2 13.9 67 10.6
2002-03-26 08:35:30 51°19.995 2°59.966 71 13.9 67.7 10.6
2002-03-26 08:35:35 51°20.002 2°59.995 71.3 13.9 67.1 10.6
2002-03-26 08:35:40 51°20.01 3°0.023 71.5 14 67.8 10.6
2002-03-26 08:35:45 51°20.017 3°0.052 71.3 14 67.5 10.6
2002-03-26 08:35:50 51°20.024 3°0.081 71.7 13.9 68 10.6
2002-03-26 08:35:55 51°20.032 3°0.109 71.3 14 67.7 10.6
2002-03-26 08:36:00 51°20.039 3°0.138 71.8 14 68.1 10.6
2002-03-26 08:36:05 51°20.046 3°0.167 71.7 14 68.1 10.6
2002-03-26 08:36:10 51°20.054 3°0.196 72.2 14 68.3 10.8
2002-03-26 08:36:15 51°20.061 3°0.225 72.2 14 68.6 10.9
2002-03-26 08:36:20 51°20.068 3°0.253 71.5 14 68.2 10.6
2002-03-26 08:36:25 51°20.075 3°0.282 71.8 14.1 68.3 10.5
2002-03-26 08:36:30 51°20.083 3°0.311 71.7 14 67.9 10.6
2002-03-26 08:36:35 51°20.09 3°0.34 71.7 14 68.3 10.6
2002-03-26 08:36:40 51°20.097 3°0.369 71.2 14 67.4 10.6
2002-03-26 08:36:44 51°20.103 3°0.392 71.7 14 68.1 10.6
2002-03-26 08:36:50 51°20.112 3°0.426 71.7 14 67.6 10.6
2002-03-26 08:36:55 51°20.12 3°0.455 71.7 14 68.2 10.6
2002-03-26 08:37:00 51°20.127 3°0.484 71.3 14 67.7 10.6
2002-03-26 08:37:05 51°20.135 3°0.513 71.3 14 68 10.5
2002-03-26 08:37:10 51°20.142 3°0.541 71.3 14 67.3 10.6
2002-03-26 08:37:15 51°20.149 3°0.57 71.2 14 67.6 10.6
2002-03-26 08:37:20 51°20.156 3°0.599 71.7 14.1 67.1 10.6
2002-03-26 08:37:25 51°20.164 3°0.627 71.5 14 68.1 10.5
2002-03-26 08:37:30 51°20.171 3°0.656 71.5 14 67.7 10.5
2002-03-26 08:37:35 51°20.179 3°0.685 71.2 14.1 67.8 10.6
2002-03-26 08:37:40 51°20.186 3°0.714 71.7 14.1 67.8 10.6
2002-03-26 08:37:45 51°20.194 3°0.742 71.5 14 67.8 10.6
2002-03-26 08:37:50 51°20.201 3°0.772 72.2 14 68.1 10.6
2002-03-26 08:37:55 51°20.208 3°0.8 71.3 14 68.2 10.5
2002-03-26 08:38:00 51°20.215 3°0.83 72.2 14.1 67.8 10.4
2002-03-26 08:38:05 51°20.223 3°0.858 71.7 14 68.1 10.6
2002-03-26 08:38:10 51°20.23 3°0.888 72 14.1 68.2 10.6
2002-03-26 08:38:15 51°20.238 3°0.916 71.2 14.1 67.6 10.5
2002-03-26 08:38:20 51°20.245 3°0.945 71.5 14.1 68 10.5
2002-03-26 08:38:25 51°20.253 3°0.974 71.2 14.1 67.8 10.6
2002-03-26 08:38:29 51°20.258 3°0.997 71.7 14.1 67.9 10.6
2002-03-26 08:38:35 51°20.268 3°1.032 71.5 14.1 67.7 10.6
2002-03-26 08:38:40 51°20.275 3°1.061 71.8 14.1 68.3 10.6
2002-03-26 08:38:45 51°20.282 3°1.09 71.7 14.1 67.9 10.6
2002-03-26 08:38:50 51°20.289 3°1.119 71.7 14.1 68 10.6
2002-03-26 08:38:55 51°20.297 3°1.148 71.3 14.1 67.7 10.6
2002-03-26 08:39:00 51°20.304 3°1.177 71.8 14.1 67.9 10.6
2002-03-26 08:39:05 51°20.312 3°1.206 71.7 14.1 67.9 10.6
2002-03-26 08:39:09 51°20.318 3°1.229 71.3 14.1 67.9 10.7
2002-03-26 08:39:15 51°20.327 3°1.264 71.3 14.2 67.7 10.6
2002-03-26 08:39:20 51°20.334 3°1.293 71.7 14.1 67.9 10.7
2002-03-26 08:39:25 51°20.342 3°1.323 71.5 14.1 68 10.7
2002-03-26 08:39:30 51°20.349 3°1.352 71.7 14.2 67.9 10.8
2002-03-26 08:39:35 51°20.357 3°1.381 71.2 14.2 67.7 10.7
2002-03-26 08:39:40 51°20.364 3°1.41 71.3 14.2 67.8 10.7
2002-03-26 08:39:45 51°20.372 3°1.439 71.5 14.1 67.9 10.6
2002-03-26 08:39:50 51°20.379 3°1.468 71.8 14.1 68.1 10.7
2002-03-26 08:39:55 51°20.386 3°1.496 71.2 14 68.1 10.6
2002-03-26 08:40:00 51°20.394 3°1.525 70.8 14 67.3 10.6
2002-03-26 08:40:05 51°20.402 3°1.553 69.5 14 66.7 10.6
2002-03-26 08:40:10 51°20.409 3°1.582 69.5 14 65.7 10.6
2002-03-26 08:40:15 51°20.418 3°1.609 68.3 14 65.4 10.6
2002-03-26 08:40:19 51°20.424 3°1.632 69 14 65.1 10.7
2002-03-26 08:40:24 51°20.432 3°1.66 68.5 13.9 65.2 10.7
2002-03-26 08:40:30 51°20.442 3°1.694 68.8 14 65.3 10.6
2002-03-26 08:40:35 51°20.45 3°1.722 68.8 14 65.1 10.7
2002-03-26 08:40:40 51°20.458 3°1.75 69.5 14 65.9 10.7
2002-03-26 08:40:45 51°20.466 3°1.778 68.7 14 65.2 10.7
2002-03-26 08:40:50 51°20.474 3°1.807 69.3 14 65.5 10.7
2002-03-26 08:40:55 51°20.482 3°1.835 69.5 14 65.6 10.8
2002-03-26 08:41:00 51°20.49 3°1.863 69.7 14 66.1 10.8
2002-03-26 08:41:05 51°20.498 3°1.892 69.8 14 66 10.8
2002-03-26 08:41:10 51°20.506 3°1.92 70 14 66.3 10.7
2002-03-26 08:41:15 51°20.514 3°1.948 69.5 14 65.8 10.7
2002-03-26 08:41:20 51°20.522 3°1.976 70 14 66.3 10.7
2002-03-26 08:41:24 51°20.528 3°1.999 69.5 13.9 65.7 10.7
2002-03-26 08:41:30 51°20.537 3°2.033 69.3 14 66.1 10.7
2002-03-26 08:41:35 51°20.545 3°2.061 69.3 14 65.3 10.7
2002-03-26 08:41:40 51°20.554 3°2.089 69.2 13.9 65.6 10.7
2002-03-26 08:41:45 51°20.561 3°2.117 69.5 13.9 65.2 10.8
2002-03-26 08:41:50 51°20.57 3°2.145 69 13.9 65.3 10.8
2002-03-26 08:41:55 51°20.577 3°2.174 69.5 14 65.6 10.8
2002-03-26 08:42:00 51°20.586 3°2.202 69.2 14 65.4 10.6
2002-03-26 08:42:05 51°20.593 3°2.23 69.8 14 66 10.8
2002-03-26 08:42:10 51°20.601 3°2.258 69.5 14 65.8 10.7
2002-03-26 08:42:15 51°20.609 3°2.286 69.7 14 66.2 10.8
2002-03-26 08:42:20 51°20.617 3°2.315 69.8 14 66 10.8
2002-03-26 08:42:25 51°20.625 3°2.343 69.5 14 65.8 10.8
2002-03-26 08:42:30 51°20.633 3°2.371 69.7 14 65.6 10.8
2002-03-26 08:42:35 51°20.641 3°2.4 69.7 14 65.6 10.8
2002-03-26 08:42:40 51°20.649 3°2.428 69.7 14 65.6 10.8
2002-03-26 08:42:45 51°20.657 3°2.457 70.2 14 66.1 10.8
2002-03-26 08:42:50 51°20.665 3°2.485 69.3 14 65.6 10.8
2002-03-26 08:42:55 51°20.673 3°2.514 69.8 14 65.9 10.8
2002-03-26 08:43:00 51°20.681 3°2.542 69.2 14.1 65.7 10.8
2002-03-26 08:43:05 51°20.689 3°2.57 69.5 14.1 65.6 10.8
2002-03-26 08:43:10 51°20.698 3°2.598 69.2 14.1 65.4 10.8
2002-03-26 08:43:15 51°20.706 3°2.627 69.3 14.1 65.5 10.7
2002-03-26 08:43:20 51°20.714 3°2.655 69 14.1 65.2 10.7
2002-03-26 08:43:25 51°20.722 3°2.684 69.3 14.1 65.2 10.7
2002-03-26 08:43:30 51°20.73 3°2.712 70 14.1 65.9 10.8
2002-03-26 08:43:35 51°20.738 3°2.741 70 14.1 65.7 10.9
2002-03-26 08:43:40 51°20.746 3°2.77 70.2 14.1 66.1 10.9
2002-03-26 08:43:45 51°20.754 3°2.798 69.8 14.1 65.9 10.9
2002-03-26 08:43:50 51°20.762 3°2.826 69.7 14.1 65.7 10.8
2002-03-26 08:43:55 51°20.77 3°2.855 69 14.1 65.3 10.9
2002-03-26 08:44:00 51°20.779 3°2.883 68.8 14.1 64.9 10.8
2002-03-26 08:44:05 51°20.787 3°2.911 68.2 14.1 64.5 10.9
2002-03-26 08:44:10 51°20.796 3°2.939 68 14.1 64.2 10.9
2002-03-26 08:44:15 51°20.804 3°2.968 68.3 14.1 64.4 10.9
2002-03-26 08:44:20 51°20.813 3°2.996 68.8 14.1 64.5 10.8
2002-03-26 08:44:25 51°20.822 3°3.024 68 14.1 64.3 11
2002-03-26 08:44:30 51°20.829 3°3.053 69.3 14.1 65.1 11
2002-03-26 08:44:35 51°20.839 3°3.08 67.7 14.1 64.5 11
2002-03-26 08:44:40 51°20.846 3°3.109 68.7 14.1 63.8 10.9
2002-03-26 08:44:44 51°20.854 3°3.131 68.2 14.1 64.5 11
2002-03-26 08:44:50 51°20.864 3°3.166 68.5 14.1 64.1 10.9
2002-03-26 08:44:55 51°20.873 3°3.194 68.2 14.1 64.2 10.9
2002-03-26 08:45:00 51°20.881 3°3.222 68.3 14.1 64.5 10.9
2002-03-26 08:45:05 51°20.89 3°3.25 68.3 14.1 64.3 11
2002-03-26 08:45:10 51°20.898 3°3.279 69.3 14.1 64.7 11
2002-03-26 08:45:15 51°20.907 3°3.306 68.2 14.1 64.1 10.9
2002-03-26 08:45:20 51°20.915 3°3.335 69 14.1 64.9 10.9
2002-03-26 08:45:25 51°20.924 3°3.363 67.5 14.1 63.9 10.9
2002-03-26 08:45:30 51°20.932 3°3.391 68.3 14.1 64.6 10.9
2002-03-26 08:45:35 51°20.941 3°3.419 68.2 14 64.1 11
2002-03-26 08:45:40 51°20.949 3°3.448 69 14.1 64.8 11
2002-03-26 08:45:45 51°20.958 3°3.475 68.2 14.1 63.9 11
2002-03-26 08:45:50 51°20.966 3°3.504 68.7 14.2 64.6 11
2002-03-26 08:45:55 51°20.975 3°3.532 68.3 14.1 63.8 11
2002-03-26 08:46:00 51°20.983 3°3.56 68.5 14.1 64.5 11
2002-03-26 08:46:05 51°20.992 3°3.588 68.3 14.1 64 11
2002-03-26 08:46:09 51°20.998 3°3.611 68.3 14.1 64.8 11
2002-03-26 08:46:15 51°21.009 3°3.645 68.5 14.1 63.9 11
2002-03-26 08:46:20 51°21.017 3°3.673 67.8 14.1 64.7 11
2002-03-26 08:46:25 51°21.026 3°3.702 68.5 14.1 63.7 11.1
2002-03-26 08:46:29 51°21.033 3°3.724 68.5 14.1 64.4 11.1
2002-03-26 08:46:35 51°21.043 3°3.758 68.8 14.1 64.2 11.1
2002-03-26 08:46:40 51°21.052 3°3.786 68.2 14.1 64.9 11
2002-03-26 08:46:45 51°21.06 3°3.815 68.8 14.1 64.4 11.1
2002-03-26 08:46:50 51°21.069 3°3.843 68.3 14.1 64.9 11.1
2002-03-26 08:46:55 51°21.077 3°3.871 68.5 14.2 64.4 11.1
2002-03-26 08:47:00 51°21.085 3°3.899 68.7 14.2 64.3 11.1
2002-03-26 08:47:05 51°21.093 3°3.928 69.2 14.2 64.9 11.1
2002-03-26 08:47:10 51°21.102 3°3.956 68.7 14.2 64.7 11.1
2002-03-26 08:47:15 51°21.11 3°3.985 69 14.2 64.8 11.2
2002-03-26 08:47:20 51°21.119 3°4.013 68.3 14.2 64.3 11.2
2002-03-26 08:47:25 51°21.127 3°4.042 69 14.2 64.8 11.2
2002-03-26 08:47:30 51°21.136 3°4.07 68.7 14.2 64.4 11.2
2002-03-26 08:47:35 51°21.144 3°4.099 69 14.2 64.9 11.2
2002-03-26 08:47:40 51°21.153 3°4.127 68.2 14.3 64.1 11.2
2002-03-26 08:47:45 51°21.161 3°4.156 68.8 14.3 64.7 11.2
2002-03-26 08:47:49 51°21.168 3°4.178 68.5 14.2 64.5 11.2
2002-03-26 08:47:55 51°21.178 3°4.213 69.2 14.2 65.2 11.3
2002-03-26 08:48:00 51°21.187 3°4.241 68.7 14.3 64.6 11.4
2002-03-26 08:48:05 51°21.195 3°4.27 68.7 14.3 64.8 11.4
2002-03-26 08:48:10 51°21.204 3°4.298 68 14.2 64.3 11.6
2002-03-26 08:48:15 51°21.212 3°4.327 68.2 14.3 64.2 11.6
2002-03-26 08:48:19 51°21.219 3°4.35 68.3 14.3 64.1 11.7
2002-03-26 08:48:25 51°21.229 3°4.384 69 14.3 64.6 11.7
2002-03-26 08:48:30 51°21.238 3°4.413 68.5 14.3 64.5 11.7
2002-03-26 08:48:35 51°21.246 3°4.441 68.3 14.3 64.5 11.9
2002-03-26 08:48:40 51°21.255 3°4.47 68.3 14.3 64.1 11.8
2002-03-26 08:48:45 51°21.264 3°4.498 68.5 14.3 64.3 11.8
2002-03-26 08:48:50 51°21.272 3°4.527 68.8 14.3 64.5 11.9
2002-03-26 08:48:55 51°21.281 3°4.555 68.5 14.3 64.5 11.8
2002-03-26 08:49:00 51°21.289 3°4.584 69.2 14.2 64.5 11.8
2002-03-26 08:49:05 51°21.298 3°4.612 68.5 14.2 64.6 11.8
2002-03-26 08:49:10 51°21.306 3°4.641 68.8 14.2 64.3 11.8
2002-03-26 08:49:15 51°21.315 3°4.669 68 14.3 64.2 11.8
2002-03-26 08:49:20 51°21.323 3°4.698 68.7 14.3 64 11.8
2002-03-26 08:49:25 51°21.332 3°4.726 68.5 14.3 64.4 11.9
2002-03-26 08:49:30 51°21.34 3°4.755 68.8 14.3 64.3 11.8
2002-03-26 08:49:35 51°21.349 3°4.783 68.3 14.3 64.6 11.8
2002-03-26 08:49:40 51°21.357 3°4.812 68.8 14.3 64.5 11.8
2002-03-26 08:49:45 51°21.367 3°4.841 68 14.3 64.1 11.8
2002-03-26 08:49:50 51°21.375 3°4.87 68.3 14.3 64.5 11.9
2002-03-26 08:49:55 51°21.384 3°4.898 67.8 14.3 64 11.8
2002-03-26 08:50:00 51°21.392 3°4.927 68.5 14.3 64.5 11.8
2002-03-26 08:50:05 51°21.401 3°4.955 68.8 14.2 64.7 11.8
2002-03-26 08:50:09 51°21.407 3°4.978 69.3 14.3 65 11.8
2002-03-26 08:50:15 51°21.417 3°5.012 69 14.2 65.1 11.8
2002-03-26 08:50:20 51°21.426 3°5.041 68.7 14.2 64.8 11.8
2002-03-26 08:50:25 51°21.434 3°5.069 68.2 14.2 64.5 11.8
2002-03-26 08:50:30 51°21.443 3°5.098 68 14.3 64.3 11.9
2002-03-26 08:50:35 51°21.451 3°5.127 68.5 14.3 64.4 11.9
2002-03-26 08:50:40 51°21.46 3°5.155 68.8 14.2 64.8 11.9
2002-03-26 08:50:44 51°21.466 3°5.178 69.3 14.2 65.3 12
2002-03-26 08:50:49 51°21.475 3°5.207 69 14.2 65.4 11.9
2002-03-26 08:50:55 51°21.485 3°5.241 68.5 14.2 64.9 11.9
2002-03-26 08:51:00 51°21.493 3°5.27 68 14.2 64.5 11.9
2002-03-26 08:51:05 51°21.502 3°5.298 68.2 14.2 64.3 11.9
2002-03-26 08:51:10 51°21.511 3°5.327 68 14.3 64.3 11.9
2002-03-26 08:51:15 51°21.52 3°5.355 68.2 14.3 64.3 11.9
2002-03-26 08:51:20 51°21.528 3°5.384 68.3 14.3 64.5 11.9
2002-03-26 08:51:25 51°21.536 3°5.412 69 14.3 64.7 12
2002-03-26 08:51:30 51°21.544 3°5.441 69.5 14.3 65.4 12
2002-03-26 08:51:35 51°21.553 3°5.47 69.5 14.2 65.3 12
2002-03-26 08:51:40 51°21.561 3°5.499 68.7 14.3 65.4 12
2002-03-26 08:51:45 51°21.57 3°5.527 68.5 14.3 64.7 12
2002-03-26 08:51:50 51°21.579 3°5.556 67.8 14.3 64.6 12
2002-03-26 08:51:55 51°21.587 3°5.584 68.2 14.3 64.2 12
2002-03-26 08:52:00 51°21.595 3°5.613 68.3 14.3 64.8 12
2002-03-26 08:52:05 51°21.604 3°5.641 68.7 14.3 64.5 12.1
2002-03-26 08:52:10 51°21.612 3°5.67 68.8 14.3 64.8 12.1
2002-03-26 08:52:15 51°21.621 3°5.699 68.7 14.3 64.6 12.1
2002-03-26 08:52:20 51°21.629 3°5.727 68.7 14.2 64.7 12.1
2002-03-26 08:52:25 51°21.638 3°5.756 68.2 14.3 64.8 12.1
2002-03-26 08:52:29 51°21.645 3°5.779 69.2 14.3 64.6 12.2
2002-03-26 08:52:35 51°21.654 3°5.814 70.3 14.3 66.4 12.2
2002-03-26 08:52:40 51°21.662 3°5.843 71.2 14.3 66.9 12.2
2002-03-26 08:52:45 51°21.669 3°5.872 71.8 14.3 68.1 12.3
2002-03-26 08:52:50 51°21.676 3°5.902 72.3 14.3 67.4 12.3
2002-03-26 08:52:55 51°21.684 3°5.931 72.5 14.2 68.8 12.3
2002-03-26 08:53:00 51°21.691 3°5.961 72.5 14.3 68 12.4
2002-03-26 08:53:05 51°21.699 3°5.99 72.2 14.3 68.5 12.3
2002-03-26 08:53:10 51°21.705 3°6.02 72.5 14.3 68.4 12.4
2002-03-26 08:53:15 51°21.713 3°6.049 71.8 14.3 68.6 12.4
2002-03-26 08:53:20 51°21.72 3°6.078 72.2 14.3 67.8 12.5
2002-03-26 08:53:25 51°21.728 3°6.108 71.8 14.3 67.9 12.5
2002-03-26 08:53:30 51°21.735 3°6.137 72.3 14.3 68 12.5
2002-03-26 08:53:35 51°21.743 3°6.167 72 14.3 68.1 12.6
2002-03-26 08:53:40 51°21.75 3°6.196 72 14.3 68.2 12.6
2002-03-26 08:53:45 51°21.758 3°6.226 72 14.3 68.1 12.6
2002-03-26 08:53:50 51°21.765 3°6.255 71.8 14.3 67.9 12.6
2002-03-26 08:53:55 51°21.773 3°6.285 71.3 14.3 67.7 12.7
2002-03-26 08:54:00 51°21.781 3°6.314 71.3 14.4 67.6 12.7
2002-03-26 08:54:05 51°21.789 3°6.343 71 14.4 67.3 12.7
2002-03-26 08:54:09 51°21.795 3°6.367 71.7 14.4 67.6 12.7
2002-03-26 08:54:15 51°21.804 3°6.402 71 14.4 67.3 12.8
2002-03-26 08:54:20 51°21.812 3°6.432 71.7 14.4 67.1 12.8
2002-03-26 08:54:25 51°21.819 3°6.461 71.7 14.4 67.7 12.9
2002-03-26 08:54:30 51°21.827 3°6.491 71.8 14.4 67.6 12.9
2002-03-26 08:54:35 51°21.834 3°6.521 71.8 14.4 67.9 12.9
2002-03-26 08:54:40 51°21.842 3°6.55 71.8 14.4 67.9 12.9
2002-03-26 08:54:44 51°21.848 3°6.574 71.5 14.4 67.7 12.9
2002-03-26 08:54:50 51°21.857 3°6.609 71.7 14.4 67.7 12.9
2002-03-26 08:54:55 51°21.865 3°6.639 71.3 14.4 67.8 12.9
2002-03-26 08:55:00 51°21.872 3°6.669 71.3 14.4 67.4 12.9
2002-03-26 08:55:05 51°21.88 3°6.698 71.8 14.4 67.5 12.9
2002-03-26 08:55:10 51°21.888 3°6.728 71.5 14.4 67.4 12.9
2002-03-26 08:55:15 51°21.895 3°6.758 71.7 14.4 68.1 12.9
2002-03-26 08:55:20 51°21.903 3°6.787 72 14.5 67.7 12.9
2002-03-26 08:55:25 51°21.909 3°6.818 74 14.5 69.3 12.9
2002-03-26 08:55:30 51°21.917 3°6.848 74.3 14.5 69.7 12.9
2002-03-26 08:55:35 51°21.922 3°6.879 76 14.5 71.7 12.9
2002-03-26 08:55:40 51°21.929 3°6.909 76.2 14.5 71.6 12.9
2002-03-26 08:55:45 51°21.935 3°6.94 77 14.5 72.9 13
2002-03-26 08:55:50 51°21.941 3°6.971 78 14.5 72.9 13
2002-03-26 08:55:55 51°21.945 3°7.002 79.3 14.5 75.1 13
2002-03-26 08:56:00 51°21.951 3°7.033 79.7 14.5 74.8 13
2002-03-26 08:56:05 51°21.955 3°7.065 80.7 14.5 76.5 13
2002-03-26 08:56:10 51°21.96 3°7.096 81.2 14.5 76.1 13.1
2002-03-26 08:56:15 51°21.965 3°7.127 81 14.5 77.1 13.1
2002-03-26 08:56:20 51°21.969 3°7.158 81.2 14.5 76.5 13.1
2002-03-26 08:56:25 51°21.974 3°7.19 81.3 14.5 77 13.1
2002-03-26 08:56:30 51°21.979 3°7.221 81 14.5 76.4 13.1
2002-03-26 08:56:35 51°21.984 3°7.252 80.7 14.5 76.2 13.1
2002-03-26 08:56:40 51°21.989 3°7.284 80.5 14.5 76 13.1
2002-03-26 08:56:45 51°21.994 3°7.315 80.2 14.6 75.8 13.2
2002-03-26 08:56:50 51°21.999 3°7.346 80.2 14.6 75.7 13.2
2002-03-26 08:56:55 51°22.004 3°7.377 79.7 14.6 75.3 13.3
2002-03-26 08:57:00 51°22.009 3°7.409 79.8 14.6 75.2 13.3
2002-03-26 08:57:05 51°22.015 3°7.44 79.2 14.6 74.9 13.3
2002-03-26 08:57:10 51°22.019 3°7.471 79.7 14.6 75.4 13.3
2002-03-26 08:57:15 51°22.025 3°7.503 79.3 14.6 75 13.4
2002-03-26 08:57:20 51°22.03 3°7.534 79.7 14.6 75.3 13.3
2002-03-26 08:57:25 51°22.035 3°7.565 80 14.6 75.2 13.3
2002-03-26 08:57:30 51°22.04 3°7.596 80.2 14.6 75.6 13.3
2002-03-26 08:57:35 51°22.046 3°7.628 79.7 14.6 75.1 13.3
2002-03-26 08:57:40 51°22.051 3°7.659 80 14.6 75.3 12.9
2002-03-26 08:57:45 51°22.056 3°7.691 79.5 14.6 75 13.4
2002-03-26 08:57:50 51°22.061 3°7.722 79.8 14.6 75.3 13.5
2002-03-26 08:57:55 51°22.067 3°7.753 79.8 14.6 75.2 13.4
2002-03-26 08:58:00 51°22.072 3°7.785 79.5 14.7 74.9 13.5
2002-03-26 08:58:05 51°22.078 3°7.816 79 14.7 74.4 13.5
2002-03-26 08:58:10 51°22.084 3°7.846 76.5 14.6 72.4 13.4
2002-03-26 08:58:15 51°22.092 3°7.875 72.3 14.5 69.3 13.4
2002-03-26 08:58:20 51°22.102 3°7.903 67 14.4 63.8 13.4
2002-03-26 08:58:25 51°22.114 3°7.929 59.3 14.4 62.6 13.4
2002-03-26 08:58:30 51°22.127 3°7.952 53 14.2 51.5 13.4
2002-03-26 08:58:35 51°22.141 3°7.974 46.3 14.1 46.8 13.4
2002-03-26 08:58:40 51°22.156 3°7.995 45 14.2 43.1 13.5
2002-03-26 08:58:45 51°22.171 3°8.016 43.7 14.2 42 13.6
2002-03-26 08:58:50 51°22.185 3°8.037 43.7 14.3 41.3 13.6
2002-03-26 08:58:55 51°22.201 3°8.057 41.7 14.3 40.5 13.7
2002-03-26 08:59:00 51°22.217 3°8.076 38.8 14.3 38.9 13.7
2002-03-26 08:59:05 51°22.233 3°8.095 37.5 14.4 36.6 13.8
2002-03-26 08:59:10 51°22.25 3°8.113 36.3 14.4 35.1 13.8
2002-03-26 08:59:15 51°22.266 3°8.131 36.2 14.4 34.7 13.8
2002-03-26 08:59:20 51°22.283 3°8.149 36.3 14.4 34.8 13.9
2002-03-26 08:59:25 51°22.299 3°8.168 36.8 14.5 35 13.9
2002-03-26 08:59:30 51°22.315 3°8.187 38 14.5 35.7 13.8
2002-03-26 08:59:35 51°22.331 3°8.206 38.2 14.5 36.3 13.9
2002-03-26 08:59:40 51°22.348 3°8.225 37.3 14.5 36.2 13.9
2002-03-26 08:59:45 51°22.364 3°8.244 38.5 14.5 36.2 13.9
2002-03-26 08:59:50 51°22.38 3°8.263 37.8 14.5 36.4 14
2002-03-26 08:59:55 51°22.397 3°8.282 38.5 14.5 35.9 14
2002-03-26 09:00:00 51°22.413 3°8.301 38.3 14.5 37.2 14.1
2002-03-26 09:00:04 51°22.426 3°8.316 39.2 14.5 35.9 14
2002-03-26 09:00:09 51°22.442 3°8.336 38.8 14.5 36.8 14
2002-03-26 09:00:15 51°22.461 3°8.36 40 14.5 36.3 14.1
2002-03-26 09:00:20 51°22.477 3°8.379 41.2 14.5 38.4 14.1
2002-03-26 09:00:25 51°22.492 3°8.4 41.2 14.5 38.3 14.1
2002-03-26 09:00:30 51°22.507 3°8.422 45.3 14.5 41.3 14.1
2002-03-26 09:00:35 51°22.521 3°8.445 48.2 14.5 43.6 14.2
2002-03-26 09:00:40 51°22.535 3°8.468 48.3 14.5 45.2 14.2
2002-03-26 09:00:45 51°22.549 3°8.491 48.5 14.6 45.6 14.2
2002-03-26 09:00:50 51°22.563 3°8.514 50 14.5 46.3 14.2
2002-03-26 09:00:55 51°22.576 3°8.539 51.7 14.5 47.8 14.2
2002-03-26 09:01:00 51°22.589 3°8.563 53 14.5 48.9 14.2
2002-03-26 09:01:05 51°22.601 3°8.589 55.2 14.5 51.1 14.2
2002-03-26 09:01:10 51°22.613 3°8.614 56.5 14.6 52.6 14.3
2002-03-26 09:01:15 51°22.625 3°8.641 57.8 14.6 53.7 14.3
2002-03-26 09:01:20 51°22.637 3°8.667 59 14.6 55.1 14.3
2002-03-26 09:01:25 51°22.648 3°8.694 59.8 14.6 55.1 14.3
2002-03-26 09:01:30 51°22.659 3°8.722 61.3 14.6 57.3 14.4
2002-03-26 09:01:35 51°22.669 3°8.75 63.7 14.6 58.5 14.3
2002-03-26 09:01:40 51°22.678 3°8.778 65.2 14.5 60.1 14.4
2002-03-26 09:01:45 51°22.688 3°8.806 64.8 14.5 61.1 14.4
2002-03-26 09:01:50 51°22.698 3°8.835 64.8 14.6 61 14.4
2002-03-26 09:01:55 51°22.707 3°8.863 65.5 14.6 61.4 14.4
2002-03-26 09:02:00 51°22.716 3°8.892 66.8 14.5 62.5 14.5
2002-03-26 09:02:05 51°22.725 3°8.92 67.3 14.5 63.2 14.4
2002-03-26 09:02:10 51°22.734 3°8.95 69.3 14.5 64.9 14.5
2002-03-26 09:02:15 51°22.742 3°8.979 70.2 14.5 66.1 14.5
2002-03-26 09:02:20 51°22.749 3°9.01 72.3 14.5 66.4 14.5
2002-03-26 09:02:25 51°22.756 3°9.039 73.8 14.5 69.1 14.5
2002-03-26 09:02:30 51°22.762 3°9.07 75.7 14.5 69.6 14.6
2002-03-26 09:02:35 51°22.768 3°9.101 77.3 14.5 72.6 14.6
2002-03-26 09:02:40 51°22.773 3°9.132 79.2 14.5 74.1 14.6
2002-03-26 09:02:45 51°22.778 3°9.164 80.8 14.5 76.1 14.6
2002-03-26 09:02:50 51°22.782 3°9.195 82 14.5 76.8 14.6
2002-03-26 09:02:55 51°22.786 3°9.227 83.5 14.5 78.7 14.6
2002-03-26 09:03:00 51°22.789 3°9.258 84.7 14.5 78.6 14.7
2002-03-26 09:03:05 51°22.792 3°9.29 85.8 14.5 81 14.7
2002-03-26 09:03:10 51°22.795 3°9.321 87 14.5 81.2 14.7
2002-03-26 09:03:15 51°22.797 3°9.353 88.2 14.4 83.3 14.7
2002-03-26 09:03:20 51°22.799 3°9.385 89 14.4 83.4 14.7
2002-03-26 09:03:25 51°22.801 3°9.417 89.3 14.4 84.5 14.6
2002-03-26 09:03:30 51°22.803 3°9.449 89.8 14.5 84.6 14.8
2002-03-26 09:03:35 51°22.805 3°9.48 89.3 14.4 84.9 14.9
2002-03-26 09:03:39 51°22.806 3°9.506 89.5 14.4 84.5 15.1
2002-03-26 09:03:45 51°22.809 3°9.544 88.8 14.4 84.2 15.6
2002-03-26 09:03:49 51°22.81 3°9.569 87.8 14.4 83.8 16.7
2002-03-26 09:03:55 51°22.813 3°9.607 88.3 14.3 83.5 17.2
2002-03-26 09:04:00 51°22.816 3°9.638 86.8 14.2 82.4 17.9
2002-03-26 09:04:05 51°22.817 3°9.669 87.7 14.2 83.4 19
2002-03-26 09:04:10 51°22.821 3°9.7 86.5 14 81.9 19.3
2002-03-26 09:04:15 51°22.822 3°9.731 86.7 14 82.2 18.9
2002-03-26 09:04:20 51°22.826 3°9.762 85.8 14 81.3 18.3
2002-03-26 09:04:25 51°22.828 3°9.793 86.2 14 82.5 19.6
2002-03-26 09:04:30 51°22.832 3°9.824 85.7 14.1 81.5 19.2
2002-03-26 09:04:35 51°22.834 3°9.855 86.2 14.2 82 18.4
2002-03-26 09:04:40 51°22.836 3°9.887 87 14.3 82.6 18.9
2002-03-26 09:04:45 51°22.839 3°9.918 86.8 14.3 83 18.7